Time;durP1;ratioP1;P1;durP2;ratioP2;P2;SDS_P1;SDS_P2;PMS_P1;PMS_P2;Temp;Humidity;BMP_temperature;BMP_pressure;BME280_temperature;BME280_humidity;BME280_pressure;Samples;Min_cycle;Max_cycle;Signal;HPM_P1;HPM_P2
2021/12/30 00:02:15;;;;;;;;;;;8.90;99.90;;;;;;5102463;28;19934;-76
2021/12/30 00:04:52;;;;;;;;;;;8.90;99.90;;;;;;5105649;28;19920;-76
2021/12/30 00:07:19;;;;;;;;;;;8.90;99.90;;;;;;5101319;28;20389;-75
2021/12/30 00:09:45;;;;;;;;;;;8.90;99.90;;;;;;5092147;28;20014;-75
2021/12/30 00:12:12;;;;;;;;;;;8.90;99.90;;;;;;5092535;28;19920;-75
2021/12/30 00:14:39;;;;;;;;;;;8.90;99.90;;;;;;5093777;28;19919;-75
2021/12/30 00:17:06;;;;;;;;;;;9.00;99.90;;;;;;5093093;28;20468;-75
2021/12/30 00:19:36;;;;;;;;;;;9.10;99.90;;;;;;5092709;28;20081;-76
2021/12/30 00:22:03;;;;;;;;;;;9.20;99.90;;;;;;5093868;28;20412;-76
2021/12/30 00:24:30;;;;;;;;;;;9.30;99.90;;;;;;5100905;28;20327;-76
2021/12/30 00:26:59;;;;;;;;;;;9.40;99.90;;;;;;5105198;28;19927;-76
2021/12/30 00:29:25;;;;;;;;;;;9.50;99.90;;;;;;5110260;27;20017;-75
2021/12/30 00:31:52;;;;;;;;;;;9.60;99.90;;;;;;5094223;28;19920;-75
2021/12/30 00:34:19;;;;;;;;;;;9.70;99.90;;;;;;5108998;28;20022;-75
2021/12/30 00:36:48;;;;;;;;;;;9.80;99.90;;;;;;5092958;28;20435;-75
2021/12/30 00:39:15;;;;;;;;;;;9.90;99.90;;;;;;5091679;28;19924;-75
2021/12/30 00:41:41;;;;;;;;;;;10.00;99.90;;;;;;5112905;28;20011;-76
2021/12/30 00:44:08;;;;;;;;;;;9.90;99.90;;;;;;5111040;28;19992;-76
2021/12/30 00:46:35;;;;;;;;;;;9.80;99.90;;;;;;5094142;27;20361;-76
2021/12/30 00:49:02;;;;;;;;;;;9.70;99.90;;;;;;5092168;28;19920;-76
2021/12/30 00:51:29;;;;;;;;;;;9.60;99.90;;;;;;5094129;28;19920;-77
2021/12/30 00:53:56;;;;;;;;;;;9.50;99.90;;;;;;5104961;28;20369;-76
2021/12/30 00:56:25;;;;;;;;;;;9.40;99.90;;;;;;5108186;28;20385;-76
2021/12/30 00:58:53;;;;;;;;;;;9.40;99.90;;;;;;5098658;28;19920;-76
2021/12/30 01:01:19;;;;;;;;;;;9.20;99.90;;;;;;5107403;28;19926;-76
2021/12/30 01:03:47;;;;;;;;;;;9.10;99.90;;;;;;5112663;28;19920;-77
2021/12/30 01:06:14;;;;;;;;;;;8.90;99.90;;;;;;5096929;28;19926;-77
2021/12/30 01:08:41;;;;;;;;;;;8.90;99.90;;;;;;5107103;27;19968;-77
2021/12/30 01:11:08;;;;;;;;;;;8.80;99.90;;;;;;5118359;27;20277;-77
2021/12/30 01:13:40;;;;;;;;;;;8.80;99.90;;;;;;5093317;28;19924;-77
2021/12/30 01:16:22;;;;;;;;;;;8.90;99.90;;;;;;5093392;28;19946;-77
2021/12/30 01:21:49;;;;;;;;;;;9.20;99.90;;;;;;5112701;27;20505;-77
2021/12/30 01:24:16;;;;;;;;;;;9.30;99.90;;;;;;5098815;27;19926;-77
2021/12/30 01:26:43;;;;;;;;;;;9.30;99.90;;;;;;5094074;28;20234;-78
2021/12/30 01:29:10;;;;;;;;;;;9.40;99.90;;;;;;5098673;28;19920;-77
2021/12/30 01:31:36;;;;;;;;;;;9.30;99.90;;;;;;5096363;28;20008;-77
2021/12/30 01:34:19;;;;;;;;;;;9.30;99.90;;;;;;5104495;28;19998;-77
2021/12/30 01:36:48;;;;;;;;;;;9.30;99.90;;;;;;5104300;28;20553;-78
2021/12/30 01:39:17;;;;;;;;;;;9.20;99.90;;;;;;5108000;28;20014;-78
2021/12/30 01:41:45;;;;;;;;;;;9.10;99.90;;;;;;5099992;28;19930;-78
2021/12/30 01:44:11;;;;;;;;;;;9.00;99.90;;;;;;5094525;28;19920;-77
2021/12/30 01:46:40;;;;;;;;;;;9.00;99.90;;;;;;5093114;28;20003;-77
2021/12/30 01:49:07;;;;;;;;;;;9.00;99.90;;;;;;5103514;28;19973;-77
2021/12/30 01:51:34;;;;;;;;;;;9.10;99.90;;;;;;5095681;28;19931;-77
2021/12/30 01:54:00;;;;;;;;;;;9.20;99.90;;;;;;5111513;27;19919;-77
2021/12/30 01:56:28;;;;;;;;;;;9.20;99.90;;;;;;5102296;27;19927;-77
2021/12/30 01:58:55;;;;;;;;;;;9.20;99.90;;;;;;5102761;28;19931;-77
2021/12/30 02:01:23;;;;;;;;;;;9.30;99.90;;;;;;5104955;28;20006;-77
2021/12/30 02:03:50;;;;;;;;;;;9.30;99.90;;;;;;5092826;28;19920;-77
2021/12/30 02:06:17;;;;;;;;;;;9.20;99.90;;;;;;5091093;28;20032;-77
2021/12/30 02:08:43;;;;;;;;;;;9.20;99.90;;;;;;5100153;28;19919;-77
2021/12/30 02:11:13;;;;;;;;;;;9.20;99.90;;;;;;5096521;28;19920;-76
2021/12/30 02:13:42;;;;;;;;;;;9.20;99.90;;;;;;5099605;28;19966;-76
2021/12/30 02:16:12;;;;;;;;;;;9.20;99.90;;;;;;5094181;28;19954;-76
2021/12/30 02:18:41;;;;;;;;;;;9.30;99.90;;;;;;5097008;28;19927;-76
2021/12/30 02:21:08;;;;;;;;;;;9.40;99.90;;;;;;5106655;28;19927;-77
2021/12/30 02:23:36;;;;;;;;;;;9.40;99.90;;;;;;5096575;28;20003;-77
2021/12/30 02:26:04;;;;;;;;;;;9.40;99.90;;;;;;5097016;28;19920;-77
2021/12/30 02:28:34;;;;;;;;;;;9.50;99.90;;;;;;5107135;28;19927;-77
2021/12/30 02:31:04;;;;;;;;;;;9.40;99.90;;;;;;5115331;27;20475;-77
2021/12/30 02:33:30;;;;;;;;;;;9.40;99.90;;;;;;5113979;28;19927;-78
2021/12/30 02:35:57;;;;;;;;;;;9.30;99.90;;;;;;5115066;28;19965;-78
2021/12/30 02:38:24;;;;;;;;;;;9.30;99.90;;;;;;5098337;28;20385;-77
2021/12/30 02:40:53;;;;;;;;;;;9.30;99.90;;;;;;5095062;28;19926;-78
2021/12/30 02:43:21;;;;;;;;;;;9.20;99.90;;;;;;5108212;28;19974;-77
2021/12/30 02:45:48;;;;;;;;;;;9.20;99.90;;;;;;5097934;28;19963;-77
2021/12/30 02:48:16;;;;;;;;;;;9.10;99.90;;;;;;5104436;28;19945;-77
2021/12/30 02:50:43;;;;;;;;;;;9.10;99.90;;;;;;5095792;28;19920;-77
2021/12/30 02:53:13;;;;;;;;;;;9.00;99.90;;;;;;5095461;28;20317;-77
2021/12/30 02:55:40;;;;;;;;;;;9.00;99.90;;;;;;5109997;28;19929;-77
2021/12/30 02:58:10;;;;;;;;;;;8.90;99.90;;;;;;5109812;27;20336;-78
2021/12/30 03:00:37;;;;;;;;;;;9.00;99.90;;;;;;5101986;28;19981;-77
2021/12/30 03:03:04;;;;;;;;;;;9.00;99.90;;;;;;5115946;28;19953;-77
2021/12/30 03:05:34;;;;;;;;;;;9.00;99.90;;;;;;5115685;28;19945;-77
2021/12/30 03:08:00;;;;;;;;;;;9.10;99.90;;;;;;5102954;28;19997;-77
2021/12/30 03:10:28;;;;;;;;;;;9.20;99.90;;;;;;5097802;28;19926;-77
2021/12/30 03:12:58;;;;;;;;;;;9.30;99.90;;;;;;5112278;28;19928;-77
2021/12/30 03:15:26;;;;;;;;;;;9.40;99.90;;;;;;5092489;28;19919;-77
2021/12/30 03:17:53;;;;;;;;;;;9.50;99.90;;;;;;5097434;28;20014;-77
2021/12/30 03:20:20;;;;;;;;;;;9.50;99.90;;;;;;5114991;27;19920;-77
2021/12/30 03:22:47;;;;;;;;;;;9.50;99.90;;;;;;5110734;27;19931;-77
2021/12/30 03:25:15;;;;;;;;;;;9.50;99.90;;;;;;5101348;27;19967;-77
2021/12/30 03:27:42;;;;;;;;;;;9.50;99.90;;;;;;5119856;27;19953;-77
2021/12/30 03:30:12;;;;;;;;;;;9.50;99.90;;;;;;5099044;28;19927;-78
2021/12/30 03:32:39;;;;;;;;;;;9.40;99.90;;;;;;5102995;28;19919;-77
2021/12/30 03:35:07;;;;;;;;;;;9.20;99.90;;;;;;5106498;28;19924;-77
2021/12/30 03:37:34;;;;;;;;;;;9.20;99.90;;;;;;5094088;28;19920;-76
2021/12/30 03:40:01;;;;;;;;;;;9.10;99.90;;;;;;5101513;28;19924;-76
2021/12/30 03:42:30;;;;;;;;;;;9.00;99.90;;;;;;5084786;28;19997;-77
2021/12/30 03:45:02;;;;;;;;;;;9.00;99.90;;;;;;5112473;28;19920;-77
2021/12/30 03:47:29;;;;;;;;;;;8.90;99.90;;;;;;5094422;28;19932;-78
2021/12/30 03:49:56;;;;;;;;;;;8.90;99.90;;;;;;5101686;28;20470;-77
2021/12/30 03:52:28;;;;;;;;;;;9.00;99.90;;;;;;5094523;28;19920;-77
2021/12/30 03:54:55;;;;;;;;;;;9.00;99.90;;;;;;5100716;28;20019;-78
2021/12/30 03:57:22;;;;;;;;;;;9.20;99.90;;;;;;5101794;28;19926;-78
2021/12/30 03:59:48;;;;;;;;;;;9.20;99.90;;;;;;5111323;27;19954;-78
2021/12/30 04:02:15;;;;;;;;;;;9.20;99.90;;;;;;5101883;27;19919;-77
2021/12/30 04:04:42;;;;;;;;;;;9.30;99.90;;;;;;5094805;28;19920;-78
2021/12/30 04:07:11;;;;;;;;;;;9.40;99.90;;;;;;5092488;28;19952;-78
2021/12/30 04:09:37;;;;;;;;;;;9.40;99.90;;;;;;5112527;27;19962;-78
2021/12/30 04:12:04;;;;;;;;;;;9.30;99.90;;;;;;5097659;28;20296;-77
2021/12/30 04:14:31;;;;;;;;;;;9.30;99.90;;;;;;5094945;28;20050;-77
2021/12/30 04:16:58;;;;;;;;;;;9.20;99.90;;;;;;5107157;28;20464;-77
2021/12/30 04:19:27;;;;;;;;;;;9.20;99.90;;;;;;5103379;27;19924;-77
2021/12/30 04:21:56;;;;;;;;;;;9.10;99.90;;;;;;5108620;28;20280;-77
2021/12/30 04:24:23;;;;;;;;;;;9.10;99.90;;;;;;5094917;28;19920;-78
2021/12/30 04:26:50;;;;;;;;;;;9.10;99.90;;;;;;5109078;28;20441;-78
2021/12/30 04:29:18;;;;;;;;;;;9.10;99.90;;;;;;5094294;28;20399;-79
2021/12/30 04:31:45;;;;;;;;;;;9.10;99.90;;;;;;5111820;28;19970;-77
2021/12/30 04:34:15;;;;;;;;;;;9.10;99.90;;;;;;5098331;28;19927;-78
2021/12/30 04:36:42;;;;;;;;;;;9.10;99.90;;;;;;5111737;28;20374;-78
2021/12/30 04:39:09;;;;;;;;;;;9.10;99.90;;;;;;5097406;28;20022;-78
2021/12/30 04:41:35;;;;;;;;;;;9.10;99.90;;;;;;5102306;28;19920;-78
2021/12/30 04:44:02;;;;;;;;;;;9.00;99.90;;;;;;5100757;28;19920;-78
2021/12/30 04:46:29;;;;;;;;;;;9.00;99.90;;;;;;5112194;28;19920;-78
2021/12/30 04:48:56;;;;;;;;;;;9.10;99.90;;;;;;5094832;28;19920;-79
2021/12/30 04:51:22;;;;;;;;;;;9.10;99.90;;;;;;5100731;28;19920;-78
2021/12/30 04:53:51;;;;;;;;;;;9.10;99.90;;;;;;5092793;28;19994;-78
2021/12/30 04:56:18;;;;;;;;;;;9.10;99.90;;;;;;5094132;28;20441;-79
2021/12/30 04:58:44;;;;;;;;;;;9.10;99.90;;;;;;5092684;28;20011;-79
2021/12/30 05:01:13;;;;;;;;;;;9.10;99.90;;;;;;5106279;28;19965;-78
2021/12/30 05:03:41;;;;;;;;;;;9.10;99.90;;;;;;5108318;28;19923;-78
2021/12/30 05:06:10;;;;;;;;;;;9.10;99.90;;;;;;5092440;28;19926;-78
2021/12/30 05:08:37;;;;;;;;;;;9.10;99.90;;;;;;5104701;28;20006;-78
2021/12/30 05:11:05;;;;;;;;;;;9.00;99.90;;;;;;5110428;28;20019;-78
2021/12/30 05:13:33;;;;;;;;;;;9.00;99.90;;;;;;5097858;28;19920;-78
2021/12/30 05:16:00;;;;;;;;;;;9.00;99.90;;;;;;5102631;28;19998;-79
2021/12/30 05:18:31;;;;;;;;;;;9.00;99.90;;;;;;5115342;27;19967;-79
2021/12/30 05:21:02;;;;;;;;;;;9.00;99.90;;;;;;5116443;27;19970;-78
2021/12/30 05:23:29;;;;;;;;;;;8.90;99.90;;;;;;5097247;27;20310;-78
2021/12/30 05:25:56;;;;;;;;;;;9.00;99.90;;;;;;5122142;27;19919;-79
2021/12/30 05:28:23;;;;;;;;;;;9.00;99.90;;;;;;5098051;27;19920;-78
2021/12/30 05:30:50;;;;;;;;;;;8.90;99.90;;;;;;5092839;28;20386;-78
2021/12/30 05:33:16;;;;;;;;;;;9.00;99.90;;;;;;5092450;28;20007;-78
2021/12/30 05:35:43;;;;;;;;;;;8.90;99.90;;;;;;5106782;27;19925;-78
2021/12/30 05:38:10;;;;;;;;;;;9.00;99.90;;;;;;5118991;27;19926;-78
2021/12/30 05:40:37;;;;;;;;;;;9.00;99.90;;;;;;5115149;27;19998;-78
2021/12/30 05:43:03;;;;;;;;;;;9.00;99.90;;;;;;5098652;27;19920;-79
2021/12/30 05:45:32;;;;;;;;;;;9.10;99.90;;;;;;5108383;28;20293;-78
2021/12/30 05:47:59;;;;;;;;;;;9.10;99.90;;;;;;5099368;28;19924;-79
2021/12/30 05:50:27;;;;;;;;;;;9.20;99.90;;;;;;5098929;28;19933;-78
2021/12/30 05:52:54;;;;;;;;;;;9.20;99.90;;;;;;5098971;28;19920;-78
2021/12/30 05:55:21;;;;;;;;;;;9.20;99.90;;;;;;5104272;28;20285;-77
2021/12/30 05:57:50;;;;;;;;;;;9.20;99.90;;;;;;5093048;28;20388;-77
2021/12/30 06:00:17;;;;;;;;;;;9.20;99.90;;;;;;5104451;28;20023;-78
2021/12/30 06:02:44;;;;;;;;;;;9.30;99.90;;;;;;5096395;28;19920;-78
2021/12/30 06:05:11;;;;;;;;;;;9.30;99.90;;;;;;5095683;28;19920;-78
2021/12/30 06:07:38;;;;;;;;;;;9.30;99.90;;;;;;5091989;28;19959;-78
2021/12/30 06:10:05;;;;;;;;;;;9.30;99.90;;;;;;5091748;28;19995;-78
2021/12/30 06:12:33;;;;;;;;;;;9.30;99.90;;;;;;5100762;28;19927;-78
2021/12/30 06:15:03;;;;;;;;;;;9.40;99.90;;;;;;5096548;28;19920;-78
2021/12/30 06:17:30;;;;;;;;;;;9.50;99.90;;;;;;5111076;28;20002;-76
2021/12/30 06:19:56;;;;;;;;;;;9.60;99.90;;;;;;5098502;28;19970;-75
2021/12/30 06:22:23;;;;;;;;;;;9.60;99.90;;;;;;5092546;28;20404;-75
2021/12/30 06:24:50;;;;;;;;;;;9.70;99.90;;;;;;5092144;28;19920;-75
2021/12/30 06:27:16;;;;;;;;;;;9.80;99.90;;;;;;5091691;28;19939;-75
2021/12/30 06:29:46;;;;;;;;;;;9.90;99.90;;;;;;5097888;28;20304;-75
2021/12/30 06:32:13;;;;;;;;;;;10.00;99.90;;;;;;5106832;28;19928;-75
2021/12/30 06:34:39;;;;;;;;;;;10.10;99.90;;;;;;5094605;28;19955;-76
2021/12/30 06:37:06;;;;;;;;;;;10.10;99.90;;;;;;5106902;28;19987;-76
2021/12/30 06:39:33;;;;;;;;;;;10.10;99.90;;;;;;5099393;28;20025;-77
2021/12/30 06:41:59;;;;;;;;;;;10.10;99.90;;;;;;5100349;28;19954;-76
2021/12/30 06:44:26;;;;;;;;;;;10.20;99.90;;;;;;5101110;28;20403;-76
2021/12/30 06:46:57;;;;;;;;;;;10.20;99.90;;;;;;5099137;28;19924;-76
2021/12/30 06:49:24;;;;;;;;;;;10.20;99.90;;;;;;5092255;28;20011;-76
2021/12/30 06:51:52;;;;;;;;;;;10.20;99.90;;;;;;5097947;28;20433;-76
2021/12/30 06:54:19;;;;;;;;;;;10.30;99.90;;;;;;5114434;28;20009;-76
2021/12/30 06:56:46;;;;;;;;;;;10.30;99.90;;;;;;5097056;28;19920;-76
2021/12/30 06:59:15;;;;;;;;;;;10.40;99.90;;;;;;5094245;28;20011;-75
2021/12/30 07:01:45;;;;;;;;;;;10.40;99.90;;;;;;5102221;28;19920;-75
2021/12/30 07:04:12;;;;;;;;;;;10.40;99.90;;;;;;5099403;28;19920;-75
2021/12/30 07:06:39;;;;;;;;;;;10.50;99.90;;;;;;5104210;28;19924;-75
2021/12/30 07:09:06;;;;;;;;;;;10.50;99.90;;;;;;5107438;28;19920;-75
2021/12/30 07:11:32;;;;;;;;;;;10.60;99.90;;;;;;5095245;28;20003;-75
2021/12/30 07:13:59;;;;;;;;;;;10.60;99.90;;;;;;5105180;28;20388;-75
2021/12/30 07:16:26;;;;;;;;;;;10.60;99.90;;;;;;5106838;28;19963;-75
2021/12/30 07:18:53;;;;;;;;;;;10.60;99.90;;;;;;5100046;28;19920;-75
2021/12/30 07:21:20;;;;;;;;;;;10.60;99.90;;;;;;5102986;28;20014;-75
2021/12/30 07:23:47;;;;;;;;;;;10.60;99.90;;;;;;5110230;28;20456;-76
2021/12/30 07:26:13;;;;;;;;;;;10.70;99.90;;;;;;5123859;27;20293;-75
2021/12/30 07:28:43;;;;;;;;;;;10.70;99.90;;;;;;5106577;27;19942;-76
2021/12/30 07:31:17;;;;;;;;;;;10.70;99.90;;;;;;5102223;28;20542;-76
2021/12/30 07:33:44;;;;;;;;;;;10.70;99.90;;;;;;5104894;28;19920;-76
2021/12/30 07:36:13;;;;;;;;;;;10.70;99.90;;;;;;5108185;27;19920;-75
2021/12/30 07:38:40;;;;;;;;;;;10.70;99.90;;;;;;5106827;27;19920;-76
2021/12/30 07:41:07;;;;;;;;;;;10.70;99.90;;;;;;5107935;28;19920;-75
2021/12/30 07:43:33;;;;;;;;;;;10.70;99.90;;;;;;5102950;28;20271;-75
2021/12/30 07:46:01;;;;;;;;;;;10.70;99.90;;;;;;5108925;28;20537;-75
2021/12/30 07:48:29;;;;;;;;;;;10.70;99.90;;;;;;5093914;28;19928;-75
2021/12/30 07:50:56;;;;;;;;;;;10.90;99.90;;;;;;5094788;28;20609;-76
2021/12/30 07:53:23;;;;;;;;;;;11.10;99.90;;;;;;5108153;28;20020;-75
2021/12/30 07:55:50;;;;;;;;;;;11.20;99.90;;;;;;5114717;28;19994;-76
2021/12/30 07:58:16;;;;;;;;;;;11.30;99.90;;;;;;5097001;27;20011;-76
2021/12/30 08:00:43;;;;;;;;;;;11.40;99.90;;;;;;5102427;28;19920;-78
2021/12/30 08:03:10;;;;;;;;;;;11.60;99.90;;;;;;5099081;28;19946;-76
2021/12/30 08:05:37;;;;;;;;;;;11.60;99.90;;;;;;5111683;28;19941;-76
2021/12/30 08:08:03;;;;;;;;;;;11.70;99.90;;;;;;5113143;28;20391;-76
2021/12/30 08:10:30;;;;;;;;;;;11.70;99.90;;;;;;5099628;28;19999;-76
2021/12/30 08:12:57;;;;;;;;;;;11.70;99.90;;;;;;5094803;28;19930;-76
2021/12/30 08:15:24;;;;;;;;;;;11.80;99.90;;;;;;5101708;28;20028;-76
2021/12/30 08:17:50;;;;;;;;;;;11.80;99.90;;;;;;5111125;28;20381;-76
2021/12/30 08:20:17;;;;;;;;;;;11.90;99.90;;;;;;5097401;27;19930;-77
2021/12/30 08:22:45;;;;;;;;;;;12.00;99.90;;;;;;5093389;28;20419;-76
2021/12/30 08:25:13;;;;;;;;;;;12.00;99.90;;;;;;5094110;28;19920;-76
2021/12/30 08:27:41;;;;;;;;;;;12.10;99.90;;;;;;5100399;28;20422;-76
2021/12/30 08:30:09;;;;;;;;;;;12.20;99.90;;;;;;5098524;28;20028;-77
2021/12/30 08:32:36;;;;;;;;;;;12.20;99.90;;;;;;5105862;27;19984;-76
2021/12/30 08:35:03;;;;;;;;;;;12.30;99.90;;;;;;5114837;27;19927;-76
2021/12/30 08:37:30;;;;;;;;;;;12.40;99.90;;;;;;5095994;28;19920;-76
2021/12/30 08:39:56;;;;;;;;;;;12.50;99.90;;;;;;5099940;28;19928;-76
2021/12/30 08:42:28;;;;;;;;;;;12.60;99.90;;;;;;5097283;27;20397;-76
2021/12/30 08:44:56;;;;;;;;;;;12.70;99.90;;;;;;5102687;27;19930;-76
2021/12/30 08:47:27;;;;;;;;;;;12.70;99.90;;;;;;5111327;27;19924;-76
2021/12/30 08:49:54;;;;;;;;;;;12.90;99.90;;;;;;5097275;28;19958;-76
2021/12/30 08:52:25;;;;;;;;;;;12.90;99.90;;;;;;5106890;28;20015;-76
2021/12/30 08:54:52;;;;;;;;;;;12.90;99.90;;;;;;5100117;28;20356;-76
2021/12/30 08:57:20;;;;;;;;;;;13.00;99.90;;;;;;5098227;28;19928;-77
2021/12/30 08:59:46;;;;;;;;;;;13.00;99.90;;;;;;5104382;27;20018;-77
2021/12/30 09:02:13;;;;;;;;;;;13.10;99.90;;;;;;5095492;27;19924;-76
2021/12/30 09:04:46;;;;;;;;;;;13.20;99.90;;;;;;5091290;28;19960;-76
2021/12/30 09:07:18;;;;;;;;;;;13.20;99.90;;;;;;5101982;28;19970;-77
2021/12/30 09:09:46;;;;;;;;;;;13.20;99.90;;;;;;5098585;27;19924;-77
2021/12/30 09:12:17;;;;;;;;;;;13.20;99.90;;;;;;5099213;28;20382;-76
2021/12/30 09:15:06;;;;;;;;;;;13.30;99.90;;;;;;5091867;28;19993;-76
2021/12/30 09:17:33;;;;;;;;;;;13.30;99.90;;;;;;5100166;28;19924;-76
2021/12/30 09:20:00;;;;;;;;;;;13.30;99.90;;;;;;5091187;28;20402;-76
2021/12/30 09:22:26;;;;;;;;;;;13.30;99.90;;;;;;5096719;27;19931;-77
2021/12/30 09:24:53;;;;;;;;;;;13.40;99.90;;;;;;5097381;28;19928;-77
2021/12/30 09:27:22;;;;;;;;;;;13.40;99.90;;;;;;5096955;28;19924;-77
2021/12/30 09:29:49;;;;;;;;;;;13.50;99.90;;;;;;5097612;28;19931;-78
2021/12/30 09:32:16;;;;;;;;;;;13.50;99.90;;;;;;5089955;28;19931;-77
2021/12/30 09:34:42;;;;;;;;;;;13.70;99.90;;;;;;5089417;28;20011;-77
2021/12/30 09:37:10;;;;;;;;;;;13.80;99.90;;;;;;5083117;27;19924;-77
2021/12/30 09:39:37;;;;;;;;;;;14.00;99.90;;;;;;5099920;27;19980;-80
2021/12/30 09:42:04;;;;;;;;;;;14.20;99.90;;;;;;5096132;28;19924;-80
2021/12/30 09:44:31;;;;;;;;;;;14.40;99.90;;;;;;5103237;28;19930;-80
2021/12/30 09:46:58;;;;;;;;;;;14.50;99.90;;;;;;5098332;28;19956;-80
2021/12/30 09:49:28;;;;;;;;;;;14.70;99.90;;;;;;5097979;28;19931;-81
2021/12/30 09:51:55;;;;;;;;;;;15.00;99.90;;;;;;5093710;27;19924;-80
2021/12/30 09:54:22;;;;;;;;;;;15.10;99.90;;;;;;5093615;28;20431;-80
2021/12/30 09:56:49;;;;;;;;;;;15.40;99.90;;;;;;5096022;28;22372;-80
2021/12/30 09:59:16;;;;;;;;;;;15.70;99.90;;;;;;5116080;27;20007;-80
2021/12/30 10:01:46;;;;;;;;;;;15.90;99.90;;;;;;5097723;28;20378;-80
2021/12/30 10:04:12;;;;;;;;;;;16.10;99.90;;;;;;5097490;28;19938;-80
2021/12/30 10:06:44;;;;;;;;;;;16.10;99.90;;;;;;5097647;28;19934;-80
2021/12/30 10:09:13;;;;;;;;;;;16.00;99.90;;;;;;5093026;28;20006;-80
2021/12/30 10:11:51;;;;;;;;;;;16.00;99.90;;;;;;5104415;28;19930;-80
2021/12/30 10:14:28;;;;;;;;;;;16.00;99.90;;;;;;5109481;28;20416;-80
2021/12/30 10:17:13;;;;;;;;;;;16.10;99.90;;;;;;5109102;28;19924;-80
2021/12/30 10:19:40;;;;;;;;;;;16.00;99.90;;;;;;5095745;28;19924;-80
2021/12/30 10:22:15;;;;;;;;;;;15.90;99.90;;;;;;5101160;28;19924;-80
2021/12/30 10:24:42;;;;;;;;;;;15.90;99.90;;;;;;5099511;28;19959;-79
2021/12/30 10:27:08;;;;;;;;;;;15.70;99.90;;;;;;5092840;28;19926;-80
2021/12/30 10:29:42;;;;;;;;;;;15.70;99.90;;;;;;5106329;28;20340;-80
2021/12/30 10:32:19;;;;;;;;;;;15.70;99.90;;;;;;5100510;28;19924;-79
2021/12/30 10:35:05;;;;;;;;;;;15.60;99.90;;;;;;5103087;28;19924;-79
2021/12/30 10:37:32;;;;;;;;;;;15.50;99.90;;;;;;5091520;28;19974;-79
2021/12/30 10:39:59;;;;;;;;;;;15.40;99.90;;;;;;5096186;28;19920;-79
2021/12/30 10:42:30;;;;;;;;;;;15.30;99.90;;;;;;5111389;28;19965;-80
2021/12/30 10:45:02;;;;;;;;;;;15.30;99.90;;;;;;5114379;28;19946;-80
2021/12/30 10:47:30;;;;;;;;;;;15.30;99.90;;;;;;5095284;28;20019;-80
2021/12/30 10:50:03;;;;;;;;;;;15.30;99.90;;;;;;5111949;28;19950;-81
2021/12/30 10:52:30;;;;;;;;;;;15.30;99.90;;;;;;5114930;28;19920;-81
2021/12/30 10:54:59;;;;;;;;;;;15.30;99.90;;;;;;5113661;28;19967;-81
2021/12/30 10:57:29;;;;;;;;;;;15.30;99.90;;;;;;5112423;28;19923;-80
2021/12/30 10:59:56;;;;;;;;;;;15.40;99.90;;;;;;5099005;28;19927;-81
2021/12/30 11:02:27;;;;;;;;;;;15.40;99.90;;;;;;5101023;27;19923;-80
2021/12/30 11:04:56;;;;;;;;;;;15.40;99.90;;;;;;5100588;27;19926;-81
2021/12/30 11:07:27;;;;;;;;;;;15.40;99.90;;;;;;5094036;28;20435;-77
2021/12/30 11:09:58;;;;;;;;;;;15.30;99.90;;;;;;5094108;28;20382;-80
2021/12/30 11:12:29;;;;;;;;;;;15.40;99.90;;;;;;5096969;28;19998;-80
2021/12/30 11:14:56;;;;;;;;;;;15.30;99.90;;;;;;5101060;28;20370;-80
2021/12/30 11:17:29;;;;;;;;;;;15.30;99.90;;;;;;5105075;27;19973;-79
2021/12/30 11:19:59;;;;;;;;;;;15.30;99.90;;;;;;5115058;28;19999;-80
2021/12/30 11:22:26;;;;;;;;;;;15.40;99.90;;;;;;5104851;27;19926;-80
2021/12/30 11:24:54;;;;;;;;;;;15.50;99.90;;;;;;5100871;27;19947;-80
2021/12/30 11:27:22;;;;;;;;;;;15.50;99.90;;;;;;5095393;28;19926;-80
2021/12/30 11:29:51;;;;;;;;;;;15.60;99.90;;;;;;5104696;28;20268;-78
2021/12/30 11:32:19;;;;;;;;;;;15.80;99.90;;;;;;5103255;27;19930;-77
2021/12/30 11:34:49;;;;;;;;;;;16.00;99.90;;;;;;5105410;28;19924;-77
2021/12/30 11:37:17;;;;;;;;;;;16.30;99.90;;;;;;5125121;27;20556;-78
2021/12/30 11:39:48;;;;;;;;;;;17.00;99.90;;;;;;5108750;28;19920;-77
2021/12/30 11:42:20;;;;;;;;;;;17.80;99.90;;;;;;5112546;28;20282;-78
2021/12/30 11:44:49;;;;;;;;;;;18.30;99.90;;;;;;5095126;28;19920;-78
2021/12/30 11:47:34;;;;;;;;;;;18.40;99.90;;;;;;5097368;28;19950;-78
2021/12/30 11:50:02;;;;;;;;;;;18.80;99.90;;;;;;5093711;28;19927;-78
2021/12/30 11:52:47;;;;;;;;;;;19.30;99.90;;;;;;5102890;27;19920;-76
2021/12/30 11:55:36;;;;;;;;;;;19.50;99.90;;;;;;5099853;28;20002;-78
2021/12/30 11:58:36;;;;;;;;;;;19.90;99.90;;;;;;5034472;28;19968;-78
2021/12/30 12:01:11;;;;;;;;;;;20.10;99.90;;;;;;5041070;28;19920;-78
2021/12/30 12:03:47;;;;;;;;;;;20.10;99.90;;;;;;5038949;28;19928;-79
2021/12/30 12:06:36;;;;;;;;;;;19.70;99.90;;;;;;5067552;28;20359;-78
2021/12/30 12:09:08;;;;;;;;;;;18.90;99.90;;;;;;5060525;28;20011;-78
2021/12/30 12:11:41;;;;;;;;;;;18.50;99.90;;;;;;5066025;28;20349;-78
2021/12/30 12:14:16;;;;;;;;;;;18.20;99.90;;;;;;5065401;28;20313;-79
2021/12/30 12:16:53;;;;;;;;;;;18.10;99.90;;;;;;5065946;28;19920;-78
2021/12/30 12:19:21;;;;;;;;;;;18.10;99.90;;;;;;5056375;28;19928;-79
2021/12/30 12:21:50;;;;;;;;;;;18.10;99.90;;;;;;5048880;28;20598;-79
2021/12/30 12:24:22;;;;;;;;;;;17.90;99.90;;;;;;5070863;28;20370;-78
2021/12/30 12:26:50;;;;;;;;;;;17.60;99.90;;;;;;5061995;28;20013;-78
2021/12/30 12:29:31;;;;;;;;;;;17.40;99.90;;;;;;5067292;28;19927;-79
2021/12/30 12:32:14;;;;;;;;;;;17.20;99.90;;;;;;5069720;28;19924;-78
2021/12/30 12:34:42;;;;;;;;;;;17.30;99.90;;;;;;5058844;28;19927;-78
2021/12/30 12:37:27;;;;;;;;;;;17.70;99.90;;;;;;5094361;28;20015;-79
2021/12/30 12:39:55;;;;;;;;;;;17.90;99.90;;;;;;5096726;28;19928;-79
2021/12/30 12:42:42;;;;;;;;;;;18.20;99.90;;;;;;5112537;27;20409;-80
2021/12/30 12:45:19;;;;;;;;;;;18.10;99.90;;;;;;5107537;27;20003;-79
2021/12/30 12:47:47;;;;;;;;;;;18.30;99.90;;;;;;5103564;27;19941;-76
2021/12/30 12:50:14;;;;;;;;;;;18.50;99.90;;;;;;5110182;28;19926;-76
2021/12/30 12:52:44;;;;;;;;;;;18.50;99.90;;;;;;5097064;28;20358;-77
2021/12/30 12:55:12;;;;;;;;;;;18.80;99.90;;;;;;5114231;28;19942;-79
2021/12/30 12:57:41;;;;;;;;;;;18.20;99.90;;;;;;5099199;28;20010;-79
2021/12/30 13:00:09;;;;;;;;;;;17.60;99.90;;;;;;5092777;28;19927;-79
2021/12/30 13:02:36;;;;;;;;;;;17.10;99.90;;;;;;5094620;28;19924;-79
2021/12/30 13:05:12;;;;;;;;;;;16.60;99.90;;;;;;5108025;27;19935;-79
2021/12/30 13:07:39;;;;;;;;;;;16.40;99.90;;;;;;5105119;27;20517;-79
2021/12/30 13:10:06;;;;;;;;;;;16.20;99.90;;;;;;5093683;28;19919;-79
2021/12/30 13:12:34;;;;;;;;;;;16.20;99.90;;;;;;5092495;28;19930;-79
2021/12/30 13:15:11;;;;;;;;;;;16.10;99.90;;;;;;5107006;28;19919;-79
2021/12/30 13:17:38;;;;;;;;;;;16.10;99.90;;;;;;5095443;27;19924;-79
2021/12/30 13:20:05;;;;;;;;;;;16.10;99.90;;;;;;5112107;28;20014;-79
2021/12/30 13:22:31;;;;;;;;;;;16.10;99.90;;;;;;5110459;28;19920;-79
2021/12/30 13:25:00;;;;;;;;;;;16.00;99.90;;;;;;5099991;27;19985;-80
2021/12/30 13:27:27;;;;;;;;;;;15.90;99.90;;;;;;5109178;28;19966;-80
2021/12/30 13:30:15;;;;;;;;;;;15.80;99.90;;;;;;5110100;28;19924;-80
2021/12/30 13:32:44;;;;;;;;;;;15.70;99.90;;;;;;5100758;28;20014;-77
2021/12/30 13:35:14;;;;;;;;;;;15.60;99.90;;;;;;5111344;28;19965;-78
2021/12/30 13:37:42;;;;;;;;;;;15.60;99.90;;;;;;5104566;28;19920;-78
2021/12/30 13:40:29;;;;;;;;;;;15.50;99.90;;;;;;5103748;28;20267;-78
2021/12/30 13:42:56;;;;;;;;;;;15.40;99.90;;;;;;5092343;28;20359;-77
2021/12/30 13:45:27;;;;;;;;;;;15.20;99.90;;;;;;5107975;28;19981;-78
2021/12/30 13:47:55;;;;;;;;;;;15.10;99.90;;;;;;5102140;28;20424;-78
2021/12/30 13:50:22;;;;;;;;;;;15.00;99.90;;;;;;5098632;28;20006;-78
2021/12/30 13:52:49;;;;;;;;;;;15.00;99.90;;;;;;5106537;28;19919;-78
2021/12/30 13:55:23;;;;;;;;;;;15.00;99.90;;;;;;5110973;28;20395;-78
2021/12/30 13:58:01;;;;;;;;;;;14.90;99.90;;;;;;5112433;27;19926;-79
2021/12/30 14:00:28;;;;;;;;;;;14.90;99.90;;;;;;5094749;28;19920;-79
2021/12/30 14:03:15;;;;;;;;;;;14.80;99.90;;;;;;5095942;28;19927;-79
2021/12/30 14:05:48;;;;;;;;;;;14.80;99.90;;;;;;5099752;28;19934;-78
2021/12/30 14:08:16;;;;;;;;;;;14.80;99.90;;;;;;5098974;27;20023;-79
2021/12/30 14:10:43;;;;;;;;;;;14.70;99.90;;;;;;5110638;27;20422;-78
2021/12/30 14:13:09;;;;;;;;;;;14.70;99.90;;;;;;5109835;28;19920;-79
2021/12/30 14:15:36;;;;;;;;;;;14.70;99.90;;;;;;5093824;28;19924;-78
2021/12/30 14:18:05;;;;;;;;;;;14.60;99.90;;;;;;5091173;28;20367;-78
2021/12/30 14:20:32;;;;;;;;;;;14.60;99.90;;;;;;5100073;28;20002;-78
2021/12/30 14:23:02;;;;;;;;;;;14.50;99.90;;;;;;5099739;28;20018;-79
2021/12/30 14:25:38;;;;;;;;;;;14.50;99.90;;;;;;5110172;28;19919;-78
2021/12/30 14:28:21;;;;;;;;;;;14.40;99.90;;;;;;5101919;28;20297;-79
2021/12/30 14:30:49;;;;;;;;;;;14.40;99.90;;;;;;5092308;28;19931;-78
2021/12/30 14:33:18;;;;;;;;;;;14.40;99.90;;;;;;5093872;28;19926;-78
2021/12/30 14:35:45;;;;;;;;;;;14.40;99.90;;;;;;5097701;28;20010;-78
2021/12/30 14:38:25;;;;;;;;;;;14.40;99.90;;;;;;5090965;28;20401;-78